createdAt,value
2018-05-16T00:00:42.765Z,19.33
2018-05-16T00:01:42.831Z,19.27
2018-05-16T00:03:35.831Z,19.33
2018-05-16T00:04:35.891Z,19.44
2018-05-16T00:06:28.885Z,19.37
2018-05-16T00:07:28.952Z,19.30
2018-05-16T00:09:21.954Z,19.33
2018-05-16T00:10:22.013Z,19.34
2018-05-16T00:12:15.015Z,19.26
2018-05-16T00:13:15.074Z,19.12
2018-05-16T00:15:08.079Z,19.08
2018-05-16T00:16:08.146Z,19.09
2018-05-16T00:18:01.659Z,18.98
2018-05-16T00:19:01.716Z,18.98
2018-05-16T00:20:54.705Z,18.70
2018-05-16T00:21:54.769Z,18.68
2018-05-16T00:23:47.772Z,18.49
2018-05-16T00:24:47.828Z,18.40
2018-05-16T00:26:40.828Z,18.31
2018-05-16T00:27:40.884Z,18.29
2018-05-16T00:29:33.903Z,18.40
2018-05-16T00:30:33.966Z,18.25
2018-05-16T00:32:26.963Z,18.22
2018-05-16T00:33:27.031Z,18.20
2018-05-16T00:35:20.027Z,18.05
2018-05-16T00:36:20.087Z,18.08
2018-05-16T00:38:13.091Z,18.13
2018-05-16T00:39:13.147Z,18.04
2018-05-16T00:41:06.146Z,18.11
2018-05-16T00:42:06.213Z,17.94
2018-05-16T00:43:59.215Z,18.05
2018-05-16T00:44:59.264Z,17.95
2018-05-16T00:46:52.260Z,17.97
2018-05-16T00:47:52.323Z,17.95
2018-05-16T00:49:45.325Z,17.94
2018-05-16T00:50:45.387Z,17.95
2018-05-16T00:52:38.383Z,17.87
2018-05-16T00:53:38.447Z,17.86
2018-05-16T00:55:31.448Z,17.80
2018-05-16T00:56:31.507Z,17.80
2018-05-16T00:58:24.503Z,17.68
2018-05-16T00:59:24.557Z,17.52
2018-05-16T01:01:17.557Z,17.68
2018-05-16T01:02:17.623Z,17.54
2018-05-16T01:04:10.624Z,17.65
2018-05-16T01:05:10.686Z,17.64
2018-05-16T01:07:03.682Z,17.56
2018-05-16T01:08:03.743Z,17.49
2018-05-16T01:09:56.743Z,17.39
2018-05-16T01:10:56.804Z,17.30
2018-05-16T01:12:49.804Z,17.23
2018-05-16T01:13:49.866Z,17.20
2018-05-16T01:15:42.860Z,17.09
2018-05-16T01:16:42.919Z,17.20
2018-05-16T01:18:36.420Z,17.05
2018-05-16T01:19:36.484Z,17.08
2018-05-16T01:21:29.483Z,17.06
2018-05-16T01:22:29.548Z,17.08
2018-05-16T01:24:22.648Z,17.06
2018-05-16T01:25:22.599Z,17.11
2018-05-16T01:27:15.590Z,16.93
2018-05-16T01:28:15.656Z,17.04
2018-05-16T01:30:08.654Z,16.97
2018-05-16T01:31:08.712Z,17.02
2018-05-16T01:33:01.708Z,17.09
2018-05-16T01:34:01.780Z,17.12
2018-05-16T01:35:54.767Z,17.16
2018-05-16T01:36:54.821Z,17.08
2018-05-16T01:38:47.820Z,17.19
2018-05-16T01:39:47.884Z,17.20
2018-05-16T01:41:40.882Z,17.12
2018-05-16T01:42:40.940Z,17.19
2018-05-16T01:44:33.927Z,17.23
2018-05-16T01:45:33.995Z,17.04
2018-05-16T01:47:26.994Z,17.04
2018-05-16T01:48:27.046Z,17.06
2018-05-16T01:50:20.051Z,16.91
2018-05-16T01:52:33.062Z,16.72
2018-05-16T01:53:33.120Z,16.69
2018-05-16T01:55:26.131Z,16.71
2018-05-16T01:56:26.187Z,16.72
2018-05-16T01:58:19.178Z,16.71
2018-05-16T01:59:19.243Z,16.72
2018-05-16T02:01:12.243Z,16.75
2018-05-16T02:02:12.297Z,16.61
2018-05-16T02:04:05.299Z,16.64
2018-05-16T02:05:05.354Z,16.61
2018-05-16T02:06:58.357Z,16.60
2018-05-16T02:07:58.413Z,16.57
2018-05-16T02:09:51.407Z,16.49
2018-05-16T02:10:51.472Z,16.47
2018-05-16T02:12:44.472Z,16.46
2018-05-16T02:13:44.528Z,16.57
2018-05-16T02:15:37.525Z,16.53
2018-05-16T02:16:37.591Z,16.46
2018-05-16T02:18:31.099Z,16.41
2018-05-16T02:19:31.153Z,16.36
2018-05-16T02:21:24.178Z,16.36
2018-05-16T02:22:24.214Z,16.28
2018-05-16T02:24:17.203Z,16.32
2018-05-16T02:25:17.266Z,16.36
2018-05-16T02:27:10.266Z,16.26
2018-05-16T02:28:10.322Z,16.39
2018-05-16T02:30:03.319Z,16.16
2018-05-16T02:31:03.384Z,16.33
2018-05-16T02:32:56.390Z,16.23
2018-05-16T02:33:56.446Z,16.31
2018-05-16T02:35:49.441Z,16.20
2018-05-16T02:36:49.501Z,16.16
2018-05-16T02:38:42.500Z,16.35
2018-05-16T02:39:42.555Z,16.20
2018-05-16T02:41:35.562Z,16.24
2018-05-16T02:42:35.680Z,16.23
2018-05-16T02:44:28.608Z,16.00
2018-05-16T02:45:28.672Z,15.95
2018-05-16T02:47:21.693Z,16.00
2018-05-16T02:48:21.745Z,15.91
2018-05-16T02:50:14.740Z,15.84
2018-05-16T02:51:14.804Z,15.67
2018-05-16T02:53:07.802Z,15.58
2018-05-16T02:54:07.858Z,15.58
2018-05-16T02:56:00.854Z,15.49
2018-05-16T02:57:00.915Z,15.51
2018-05-16T02:58:53.911Z,15.44
2018-05-16T02:59:53.965Z,15.47
2018-05-16T03:01:46.968Z,15.46
2018-05-16T03:02:47.023Z,15.52
2018-05-16T03:04:40.042Z,15.43
2018-05-16T03:05:40.102Z,15.39
2018-05-16T03:07:33.090Z,15.36
2018-05-16T03:08:33.149Z,15.33
2018-05-16T03:10:26.142Z,15.33
2018-05-16T03:11:26.204Z,15.29
2018-05-16T03:13:19.201Z,15.17
2018-05-16T03:14:19.254Z,15.09
2018-05-16T03:16:12.242Z,14.99
2018-05-16T03:17:12.308Z,15.04
2018-05-16T03:19:05.308Z,15.03
2018-05-16T03:20:05.365Z,15.21
2018-05-16T03:21:58.369Z,15.17
2018-05-16T03:22:58.424Z,15.17
2018-05-16T03:24:51.430Z,15.25
2018-05-16T03:25:51.485Z,15.15
2018-05-16T03:27:44.499Z,15.28
2018-05-16T03:28:44.545Z,15.09
2018-05-16T03:30:37.538Z,15.14
2018-05-16T03:31:37.597Z,15.15
2018-05-16T03:33:30.601Z,15.17
2018-05-16T03:34:30.665Z,15.06
2018-05-16T03:36:23.647Z,15.04
2018-05-16T03:37:23.716Z,15.09
2018-05-16T03:39:16.709Z,15.04
2018-05-16T03:40:16.776Z,15.07
2018-05-16T03:42:09.754Z,15.00
2018-05-16T03:43:09.825Z,15.00
2018-05-16T03:45:02.826Z,14.92
2018-05-16T03:46:02.889Z,14.97
2018-05-16T03:47:55.869Z,14.84
2018-05-16T03:48:55.932Z,14.96
2018-05-16T03:50:48.933Z,14.92
2018-05-16T03:51:48.988Z,14.91
2018-05-16T03:53:41.988Z,14.89
2018-05-16T03:54:42.041Z,14.85
2018-05-16T03:56:35.030Z,14.96
2018-05-16T03:57:35.092Z,14.96
2018-05-16T03:59:28.089Z,14.84
2018-05-16T04:00:28.143Z,14.72
2018-05-16T04:02:21.205Z,14.79
2018-05-16T04:03:21.196Z,14.91
2018-05-16T04:05:14.200Z,14.78
2018-05-16T04:06:14.244Z,14.94
2018-05-16T04:08:07.240Z,14.73
2018-05-16T04:09:07.307Z,14.70
2018-05-16T04:11:00.311Z,14.72
2018-05-16T04:12:00.368Z,14.73
2018-05-16T04:13:53.359Z,14.79
2018-05-16T04:14:53.424Z,14.63
2018-05-16T04:16:46.419Z,14.63
2018-05-16T04:17:46.476Z,14.65
2018-05-16T04:19:39.471Z,14.69
2018-05-16T04:20:39.535Z,14.78
2018-05-16T04:22:32.536Z,14.72
2018-05-16T04:23:32.594Z,14.84
2018-05-16T04:25:25.595Z,14.72
2018-05-16T04:26:25.653Z,14.70
2018-05-16T04:28:18.642Z,14.79
2018-05-16T04:29:18.705Z,14.85
2018-05-16T04:31:11.708Z,14.85
2018-05-16T04:32:11.767Z,14.91
2018-05-16T04:34:04.763Z,15.10
2018-05-16T04:35:04.823Z,15.21
2018-05-16T04:36:57.822Z,15.33
2018-05-16T04:37:57.880Z,15.39
2018-05-16T04:39:50.868Z,15.29
2018-05-16T04:40:50.933Z,15.25
2018-05-16T04:42:43.933Z,15.39
2018-05-16T04:43:43.992Z,15.35
2018-05-16T04:45:36.989Z,15.51
2018-05-16T04:46:37.046Z,15.43
2018-05-16T04:48:30.039Z,15.40
2018-05-16T04:49:30.103Z,15.40
2018-05-16T04:51:23.104Z,15.43
2018-05-16T04:52:23.158Z,15.43
2018-05-16T04:54:16.157Z,15.47
2018-05-16T04:55:16.223Z,15.40
2018-05-16T04:57:09.223Z,15.43
2018-05-16T04:58:09.279Z,15.42
2018-05-16T05:00:02.271Z,15.42
2018-05-16T05:01:02.433Z,15.43
2018-05-16T05:02:55.333Z,15.54
2018-05-16T05:03:55.388Z,15.55
2018-05-16T05:05:48.391Z,15.52
2018-05-16T05:06:48.449Z,15.49
2018-05-16T05:08:41.458Z,15.65
2018-05-16T05:09:41.533Z,15.68
2018-05-16T05:11:34.510Z,15.64
2018-05-16T05:12:34.566Z,15.79
2018-05-16T05:14:27.561Z,15.79
2018-05-16T05:15:27.618Z,15.76
2018-05-16T05:17:20.619Z,15.79
2018-05-16T05:18:20.696Z,15.86
2018-05-16T05:20:13.663Z,15.91
2018-05-16T05:21:13.728Z,15.94
2018-05-16T05:23:06.739Z,15.94
2018-05-16T05:24:06.896Z,15.91
2018-05-16T05:25:59.783Z,16.08
2018-05-16T05:26:59.845Z,16.05
2018-05-16T05:28:52.858Z,16.21
2018-05-16T05:29:52.908Z,16.20
2018-05-16T05:31:45.908Z,16.28
2018-05-16T05:32:45.967Z,16.20
2018-05-16T05:34:38.966Z,16.26
2018-05-16T05:35:39.023Z,16.16
2018-05-16T05:37:32.023Z,16.42
2018-05-16T05:38:32.085Z,16.36
2018-05-16T05:40:25.071Z,16.51
2018-05-16T05:41:25.136Z,16.50
2018-05-16T05:43:18.198Z,16.53
2018-05-16T05:44:18.200Z,16.54
2018-05-16T05:46:11.197Z,16.60
2018-05-16T05:47:11.251Z,16.71
2018-05-16T05:49:04.254Z,16.69
2018-05-16T05:50:04.307Z,16.83
2018-05-16T05:51:57.323Z,16.89
2018-05-16T05:52:57.370Z,16.96
2018-05-16T05:54:50.368Z,17.26
2018-05-16T05:55:50.423Z,17.39
2018-05-16T05:57:43.424Z,17.64
2018-05-16T05:58:43.482Z,17.72
2018-05-16T06:00:36.471Z,18.00
2018-05-16T06:01:36.538Z,18.22
2018-05-16T06:03:29.538Z,18.68
2018-05-16T06:04:29.598Z,19.11
2018-05-16T06:06:22.591Z,19.66
2018-05-16T06:07:22.652Z,19.69
2018-05-16T06:09:15.654Z,20.04
2018-05-16T06:10:15.712Z,20.43
2018-05-16T06:12:08.703Z,21.52
2018-05-16T06:13:08.769Z,21.60
2018-05-16T06:15:01.776Z,23.68
2018-05-16T06:16:01.827Z,24.57
2018-05-16T06:17:56.338Z,24.45
2018-05-16T06:18:56.404Z,25.41
2018-05-16T06:20:49.403Z,25.41
2018-05-16T06:21:49.463Z,25.29
2018-05-16T06:23:42.470Z,23.95
2018-05-16T06:24:42.559Z,23.71
2018-05-16T06:26:35.531Z,22.55
2018-05-16T06:27:35.601Z,22.10
2018-05-16T06:29:28.603Z,21.45
2018-05-16T06:30:28.664Z,21.32
2018-05-16T06:32:21.669Z,21.07
2018-05-16T06:33:21.734Z,21.30
2018-05-16T06:35:14.743Z,21.24
2018-05-16T06:36:14.796Z,22.35
2018-05-16T06:38:07.794Z,24.66
2018-05-16T06:39:07.874Z,24.70
2018-05-16T06:41:00.866Z,24.55
2018-05-16T06:42:00.927Z,26.06
2018-05-16T06:43:53.953Z,27.68
2018-05-16T06:44:53.999Z,28.45
2018-05-16T06:46:47.001Z,29.35
2018-05-16T06:47:47.140Z,29.32
2018-05-16T06:49:40.085Z,29.02
2018-05-16T06:50:40.160Z,28.93
2018-05-16T06:52:33.157Z,28.41
2018-05-16T06:53:33.224Z,28.27
2018-05-16T06:55:26.238Z,28.60
2018-05-16T06:56:26.305Z,28.88
2018-05-16T06:58:19.310Z,28.85
2018-05-16T06:59:19.381Z,28.60
2018-05-16T07:01:12.406Z,29.22
2018-05-16T07:02:12.459Z,29.90
2018-05-16T07:04:05.497Z,30.28
2018-05-16T07:05:05.547Z,29.56
2018-05-16T07:06:58.572Z,28.11
2018-05-16T07:07:58.629Z,27.26
2018-05-16T07:09:51.668Z,25.28
2018-05-16T07:10:51.751Z,24.48
2018-05-16T07:12:44.748Z,23.40
2018-05-16T07:13:44.818Z,22.88
2018-05-16T07:15:37.838Z,22.57
2018-05-16T07:16:37.906Z,22.33
2018-05-16T07:18:30.910Z,21.83
2018-05-16T07:19:30.984Z,21.54
2018-05-16T07:21:23.994Z,21.22
2018-05-16T07:22:24.061Z,21.05
2018-05-16T07:24:17.065Z,20.78
2018-05-16T07:25:17.255Z,20.81
2018-05-16T07:27:10.147Z,20.87
2018-05-16T07:28:10.207Z,20.81
2018-05-16T07:30:03.219Z,20.80
2018-05-16T07:31:03.275Z,20.88
2018-05-16T07:32:56.286Z,20.78
2018-05-16T07:33:56.348Z,20.77
2018-05-16T07:35:49.354Z,20.75
2018-05-16T07:36:49.421Z,20.60
2018-05-16T07:38:42.429Z,20.87
2018-05-16T07:39:42.503Z,20.96
2018-05-16T07:41:35.504Z,21.09
2018-05-16T07:42:35.564Z,20.95
2018-05-16T07:44:28.566Z,20.69
2018-05-16T07:45:28.633Z,20.63
2018-05-16T07:47:21.646Z,20.67
2018-05-16T07:48:21.703Z,20.70
2018-05-16T07:50:14.704Z,20.77
2018-05-16T07:51:14.807Z,20.75
2018-05-16T07:53:07.776Z,20.74
2018-05-16T07:54:07.835Z,20.60
2018-05-16T07:56:00.883Z,20.56
2018-05-16T07:57:00.902Z,20.48
2018-05-16T07:58:53.910Z,20.44
2018-05-16T07:59:53.969Z,20.32
2018-05-16T08:01:46.975Z,20.29
2018-05-16T08:02:47.036Z,20.25
2018-05-16T08:04:40.030Z,20.32
2018-05-16T08:05:40.099Z,20.36
2018-05-16T08:07:33.109Z,20.40
2018-05-16T08:08:33.171Z,20.48
2018-05-16T08:10:26.730Z,20.74
2018-05-16T08:11:26.743Z,20.67
2018-05-16T08:13:19.747Z,20.70
2018-05-16T08:14:19.808Z,20.70
2018-05-16T08:16:12.824Z,21.15
2018-05-16T08:17:12.932Z,21.33
2018-05-16T08:19:05.900Z,21.58
2018-05-16T08:20:05.961Z,21.85
2018-05-16T08:21:58.965Z,21.67
2018-05-16T08:22:59.025Z,21.72
2018-05-16T08:24:52.025Z,21.83
2018-05-16T08:25:52.093Z,21.75
2018-05-16T08:27:45.107Z,21.51
2018-05-16T08:28:45.169Z,21.35
2018-05-16T08:30:38.175Z,21.14
2018-05-16T08:31:38.238Z,20.93
2018-05-16T08:33:31.247Z,20.82
2018-05-16T08:34:31.302Z,20.93
2018-05-16T08:36:24.305Z,20.99
2018-05-16T08:37:24.371Z,21.30
2018-05-16T08:39:17.384Z,21.54
2018-05-16T08:40:17.446Z,21.50
2018-05-16T08:42:10.465Z,21.43
2018-05-16T08:43:10.515Z,21.35
2018-05-16T08:45:03.524Z,21.25
2018-05-16T08:46:03.586Z,21.29
2018-05-16T08:47:56.632Z,21.61
2018-05-16T08:48:56.656Z,22.07
2018-05-16T08:50:49.728Z,22.17
2018-05-16T08:51:49.723Z,22.44
2018-05-16T08:53:42.767Z,23.71
2018-05-16T08:54:42.807Z,23.27
2018-05-16T08:56:35.804Z,23.09
2018-05-16T08:57:36.005Z,23.05
2018-05-16T08:59:28.885Z,22.41
2018-05-16T09:00:28.948Z,22.30
2018-05-16T09:02:21.954Z,22.08
2018-05-16T09:03:22.021Z,22.22
2018-05-16T09:05:15.030Z,22.29
2018-05-16T09:06:15.090Z,22.32
2018-05-16T09:08:08.113Z,22.20
2018-05-16T09:09:08.162Z,22.14
2018-05-16T09:11:01.175Z,22.08
2018-05-16T09:12:01.235Z,21.98
2018-05-16T09:13:54.237Z,22.00
2018-05-16T09:14:54.299Z,22.00
2018-05-16T09:16:47.302Z,22.02
2018-05-16T09:17:47.363Z,22.15
2018-05-16T09:19:40.386Z,22.10
2018-05-16T09:20:40.450Z,21.99
2018-05-16T09:22:33.454Z,22.10
2018-05-16T09:23:33.520Z,22.04
2018-05-16T09:25:26.525Z,21.91
2018-05-16T09:26:26.589Z,21.89
2018-05-16T09:28:19.588Z,21.89
2018-05-16T09:29:19.655Z,22.10
2018-05-16T09:31:12.662Z,21.98
2018-05-16T09:32:12.717Z,21.92
2018-05-16T09:34:05.770Z,22.10
2018-05-16T09:35:05.793Z,22.08
2018-05-16T09:36:58.794Z,22.25
2018-05-16T09:37:58.863Z,22.25
2018-05-16T09:39:51.870Z,22.51
2018-05-16T09:40:52.249Z,22.60
2018-05-16T09:42:44.944Z,22.59
2018-05-16T09:43:44.999Z,22.57
2018-05-16T09:45:38.038Z,22.50
2018-05-16T09:46:38.064Z,22.55
2018-05-16T09:48:31.076Z,22.72
2018-05-16T09:49:31.143Z,22.80
2018-05-16T09:51:24.211Z,22.66
2018-05-16T09:52:24.228Z,22.70
2018-05-16T09:54:17.241Z,22.66
2018-05-16T09:55:17.297Z,22.78
2018-05-16T09:57:10.369Z,22.80
2018-05-16T09:58:10.366Z,22.78
2018-05-16T10:00:03.378Z,23.03
2018-05-16T10:01:03.440Z,23.15
2018-05-16T10:02:56.440Z,23.37
2018-05-16T10:03:56.580Z,23.27
2018-05-16T10:05:49.526Z,23.34
2018-05-16T10:06:49.591Z,23.48
2018-05-16T10:08:42.597Z,23.58
2018-05-16T10:09:42.751Z,23.81
2018-05-16T10:11:35.673Z,23.84
2018-05-16T10:12:35.735Z,23.66
2018-05-16T10:14:28.765Z,23.93
2018-05-16T10:15:28.808Z,23.98
2018-05-16T10:17:21.823Z,24.02
2018-05-16T10:18:21.887Z,23.84
2018-05-16T10:20:15.031Z,23.96
2018-05-16T10:21:14.957Z,23.87
2018-05-16T10:23:07.967Z,23.83
2018-05-16T10:24:08.036Z,23.95
2018-05-16T10:26:01.048Z,24.17
2018-05-16T10:27:01.137Z,24.21
2018-05-16T10:28:54.124Z,24.38
2018-05-16T10:29:54.362Z,24.38
2018-05-16T10:31:47.197Z,24.38
2018-05-16T10:32:47.259Z,24.33
2018-05-16T10:34:40.269Z,24.24
2018-05-16T10:35:40.331Z,24.08
2018-05-16T10:37:33.362Z,24.18
2018-05-16T10:38:33.406Z,24.23
2018-05-16T10:40:26.423Z,24.23
2018-05-16T10:41:26.518Z,24.08
2018-05-16T10:43:19.497Z,23.98
2018-05-16T10:44:19.562Z,23.76
2018-05-16T10:46:12.569Z,23.93
2018-05-16T10:47:12.666Z,24.05
2018-05-16T10:49:05.654Z,24.36
2018-05-16T10:50:05.702Z,24.45
2018-05-16T10:51:58.738Z,24.63
2018-05-16T10:52:58.801Z,24.76
2018-05-16T10:54:51.790Z,24.61
2018-05-16T10:55:51.965Z,24.68
2018-05-16T10:57:44.889Z,24.69
2018-05-16T10:58:44.927Z,24.73
2018-05-16T11:00:38.027Z,24.77
2018-05-16T11:01:38.013Z,24.86
2018-05-16T11:03:31.391Z,24.92
2018-05-16T11:04:31.075Z,24.98
2018-05-16T11:06:24.110Z,24.99
2018-05-16T11:07:24.160Z,24.91
2018-05-16T11:09:17.283Z,24.96
2018-05-16T11:10:17.241Z,24.68
2018-05-16T11:12:10.238Z,24.80
2018-05-16T11:13:10.307Z,24.84
2018-05-16T11:15:03.325Z,24.85
2018-05-16T11:16:03.373Z,24.84
2018-05-16T11:17:56.511Z,25.07
2018-05-16T11:18:56.518Z,24.53
2018-05-16T11:20:49.465Z,24.73
2018-05-16T11:21:49.534Z,24.69
2018-05-16T11:23:42.562Z,24.89
2018-05-16T11:24:42.606Z,24.85
2018-05-16T11:26:36.172Z,25.06
2018-05-16T11:27:36.184Z,25.07
2018-05-16T11:29:29.208Z,25.06
2018-05-16T11:30:29.265Z,25.08
2018-05-16T11:32:22.307Z,25.21
2018-05-16T11:33:22.334Z,25.18
2018-05-16T11:35:15.402Z,25.29
2018-05-16T11:36:15.410Z,25.35
2018-05-16T11:38:08.443Z,25.50
2018-05-16T11:39:08.512Z,25.47
2018-05-16T11:41:01.508Z,25.51
2018-05-16T11:42:01.582Z,25.55
2018-05-16T11:43:54.568Z,25.50
2018-05-16T11:44:54.650Z,25.26
2018-05-16T11:46:47.638Z,25.07
2018-05-16T11:47:47.700Z,24.91
2018-05-16T11:49:40.737Z,24.95
2018-05-16T11:50:40.809Z,24.95
2018-05-16T11:52:33.789Z,24.73
2018-05-16T11:53:33.850Z,24.98
2018-05-16T11:55:26.872Z,24.80
2018-05-16T11:56:26.923Z,24.74
2018-05-16T11:58:19.932Z,24.78
2018-05-16T11:59:20.041Z,24.76
2018-05-16T12:01:13.090Z,24.78
2018-05-16T12:02:13.109Z,24.89
2018-05-16T12:04:06.105Z,24.85
2018-05-16T12:05:06.157Z,24.93
2018-05-16T12:06:59.178Z,24.63
2018-05-16T12:07:59.219Z,24.66
2018-05-16T12:09:52.261Z,24.81
2018-05-16T12:10:52.305Z,24.84
2018-05-16T12:12:45.331Z,24.86
2018-05-16T12:13:45.381Z,24.86
2018-05-16T12:15:38.411Z,24.96
2018-05-16T12:16:38.481Z,25.07
2018-05-16T12:18:31.527Z,25.18
2018-05-16T12:19:31.552Z,25.17
2018-05-16T12:21:24.547Z,24.93
2018-05-16T12:22:24.610Z,25.04
2018-05-16T12:24:17.673Z,24.91
2018-05-16T12:25:17.729Z,25.04
2018-05-16T12:27:10.705Z,24.93
2018-05-16T12:28:10.755Z,24.98
2018-05-16T12:30:03.784Z,25.10
2018-05-16T12:31:03.838Z,25.04
2018-05-16T12:32:56.861Z,25.08
2018-05-16T12:33:56.906Z,25.10
2018-05-16T12:35:49.914Z,25.22
2018-05-16T12:36:49.980Z,25.13
2018-05-16T12:38:43.004Z,25.23
2018-05-16T12:39:43.066Z,25.22
2018-05-16T12:41:36.084Z,25.06
2018-05-16T12:42:36.154Z,24.93
2018-05-16T12:44:29.210Z,24.95
2018-05-16T12:45:29.230Z,25.04
2018-05-16T12:47:22.206Z,24.76
2018-05-16T12:48:22.287Z,24.81
2018-05-16T12:50:15.287Z,24.78
2018-05-16T12:51:15.351Z,24.85
2018-05-16T12:53:08.458Z,24.78
2018-05-16T12:54:08.426Z,24.81
2018-05-16T12:56:01.512Z,24.93
2018-05-16T12:57:01.491Z,24.92
2018-05-16T12:58:54.815Z,24.95
2018-05-16T12:59:54.574Z,24.86
2018-05-16T13:01:47.693Z,24.68
2018-05-16T13:02:47.676Z,24.54
2018-05-16T13:04:40.651Z,24.51
2018-05-16T13:05:40.718Z,24.55
2018-05-16T13:07:33.955Z,24.57
2018-05-16T13:08:33.799Z,24.55
2018-05-16T13:10:26.811Z,24.54
2018-05-16T13:11:26.881Z,24.66
2018-05-16T13:13:19.988Z,24.61
2018-05-16T13:14:19.998Z,24.65
2018-05-16T13:16:12.958Z,24.74
2018-05-16T13:17:13.052Z,24.73
2018-05-16T13:19:06.079Z,24.86
2018-05-16T13:20:06.128Z,24.74
2018-05-16T13:21:59.131Z,24.69
2018-05-16T13:22:59.153Z,24.70
2018-05-16T13:24:52.165Z,24.55
2018-05-16T13:25:52.261Z,24.55
2018-05-16T13:27:45.260Z,24.48
2018-05-16T13:28:45.327Z,24.39
2018-05-16T13:30:38.349Z,24.51
2018-05-16T13:31:38.393Z,24.55
2018-05-16T13:33:31.402Z,24.69
2018-05-16T13:34:31.468Z,24.81
2018-05-16T13:36:24.494Z,25.08
2018-05-16T13:37:24.527Z,25.08
2018-05-16T13:39:17.532Z,25.11
2018-05-16T13:40:17.650Z,25.08
2018-05-16T13:42:10.628Z,25.06
2018-05-16T13:43:10.697Z,25.10
2018-05-16T13:45:03.678Z,24.99
2018-05-16T13:46:03.747Z,24.95
2018-05-16T13:47:56.761Z,25.03
2018-05-16T13:48:56.844Z,25.03
2018-05-16T13:50:49.870Z,25.32
2018-05-16T13:51:49.893Z,25.47
2018-05-16T13:53:42.925Z,25.21
2018-05-16T13:54:43.008Z,25.08
2018-05-16T13:56:36.010Z,24.78
2018-05-16T13:57:36.040Z,24.66
2018-05-16T13:59:29.065Z,24.40
2018-05-16T14:00:29.115Z,24.28
2018-05-16T14:02:22.128Z,23.88
2018-05-16T14:03:22.179Z,23.84
2018-05-16T14:05:15.183Z,23.61
2018-05-16T14:06:15.252Z,23.58
2018-05-16T14:08:08.269Z,23.28
2018-05-16T14:09:08.321Z,22.98
2018-05-16T14:11:01.343Z,22.81
2018-05-16T14:12:01.446Z,22.65
2018-05-16T14:13:54.402Z,22.39
2018-05-16T14:14:54.458Z,22.32
2018-05-16T14:16:47.632Z,22.18
2018-05-16T14:17:47.534Z,22.17
2018-05-16T14:19:40.696Z,22.25
2018-05-16T14:20:40.600Z,22.35
2018-05-16T14:22:33.700Z,22.33
2018-05-16T14:23:33.671Z,22.33
2018-05-16T14:25:26.733Z,22.57
2018-05-16T14:26:26.756Z,22.69
2018-05-16T14:28:19.806Z,22.94
2018-05-16T14:29:19.802Z,22.91
2018-05-16T14:31:12.801Z,22.70
2018-05-16T14:32:12.871Z,22.62
2018-05-16T14:34:05.875Z,22.13
2018-05-16T14:35:05.939Z,22.02
2018-05-16T14:36:58.943Z,21.80
2018-05-16T14:37:59.008Z,21.70
2018-05-16T14:39:52.016Z,21.82
2018-05-16T14:40:52.071Z,21.85
2018-05-16T14:42:45.190Z,21.82
2018-05-16T14:43:45.178Z,22.00
2018-05-16T14:45:38.137Z,22.25
2018-05-16T14:46:38.199Z,22.36
2018-05-16T14:48:31.227Z,22.60
2018-05-16T14:49:31.280Z,22.70
2018-05-16T14:51:24.280Z,22.81
2018-05-16T14:52:24.346Z,22.81
2018-05-16T14:54:17.360Z,22.84
2018-05-16T14:55:17.416Z,22.96
2018-05-16T14:57:10.426Z,23.03
2018-05-16T14:58:10.484Z,23.02
2018-05-16T15:00:03.494Z,23.02
2018-05-16T15:01:03.553Z,23.10
2018-05-16T15:02:56.573Z,23.17
2018-05-16T15:03:56.700Z,23.28
2018-05-16T15:05:49.642Z,23.21
2018-05-16T15:06:49.716Z,23.28
2018-05-16T15:08:42.718Z,23.23
2018-05-16T15:09:42.773Z,23.27
2018-05-16T15:11:35.788Z,23.25
2018-05-16T15:12:35.854Z,23.13
2018-05-16T15:14:28.862Z,23.15
2018-05-16T15:15:28.923Z,23.17
2018-05-16T15:17:21.920Z,22.99
2018-05-16T15:18:21.988Z,23.06
2018-05-16T15:20:15.035Z,23.06
2018-05-16T15:21:15.084Z,23.03
2018-05-16T15:23:08.070Z,23.00
2018-05-16T15:24:08.134Z,23.05
2018-05-16T15:26:01.212Z,23.10
2018-05-16T15:27:01.217Z,23.03
2018-05-16T15:28:54.233Z,23.13
2018-05-16T15:29:54.278Z,23.27
2018-05-16T15:31:47.281Z,23.27
2018-05-16T15:32:47.343Z,23.34
2018-05-16T15:34:40.351Z,23.41
2018-05-16T15:35:40.410Z,23.37
2018-05-16T15:37:33.413Z,23.48
2018-05-16T15:38:33.486Z,23.37
2018-05-16T15:40:26.507Z,23.39
2018-05-16T15:41:26.566Z,23.27
2018-05-16T15:43:19.564Z,23.13
2018-05-16T15:44:19.631Z,23.10
2018-05-16T15:46:12.638Z,22.98
2018-05-16T15:47:12.698Z,23.00
2018-05-16T15:49:06.222Z,23.12
2018-05-16T15:50:06.271Z,23.15
2018-05-16T15:51:59.796Z,23.43
2018-05-16T15:52:59.845Z,23.44
2018-05-16T15:54:53.361Z,23.31
2018-05-16T15:55:53.419Z,23.27
2018-05-16T15:57:46.922Z,23.09
2018-05-16T15:58:46.995Z,23.03
2018-05-16T16:00:40.007Z,23.18
2018-05-16T16:01:40.063Z,23.13
2018-05-16T16:03:33.059Z,22.90
2018-05-16T16:04:33.131Z,22.83
2018-05-16T16:06:26.132Z,22.66
2018-05-16T16:07:26.195Z,22.53
2018-05-16T16:09:19.220Z,22.50
2018-05-16T16:10:19.286Z,22.33
2018-05-16T16:12:12.297Z,22.26
2018-05-16T16:13:12.358Z,22.11
2018-05-16T16:15:05.355Z,21.98
2018-05-16T16:16:05.422Z,21.92
2018-05-16T16:17:58.446Z,21.89
2018-05-16T16:18:58.508Z,21.89
2018-05-16T16:20:51.518Z,21.76
2018-05-16T16:21:51.577Z,21.72
2018-05-16T16:23:44.580Z,21.73
2018-05-16T16:24:44.644Z,21.80
2018-05-16T16:26:37.649Z,21.76
2018-05-16T16:27:37.706Z,21.79
2018-05-16T16:29:30.708Z,21.80
2018-05-16T16:30:30.764Z,21.66
2018-05-16T16:32:23.781Z,21.57
2018-05-16T16:33:23.839Z,21.69
2018-05-16T16:35:16.836Z,21.83
2018-05-16T16:36:16.904Z,21.82
2018-05-16T16:38:09.906Z,21.83
2018-05-16T16:39:10.026Z,21.82
2018-05-16T16:41:02.971Z,21.98
2018-05-16T16:42:03.035Z,21.88
2018-05-16T16:43:56.051Z,22.04
2018-05-16T16:44:56.191Z,22.02
2018-05-16T16:46:49.121Z,22.11
2018-05-16T16:47:49.177Z,22.11
2018-05-16T16:49:42.175Z,22.00
2018-05-16T16:50:42.244Z,21.99
2018-05-16T16:52:35.250Z,21.88
2018-05-16T16:53:35.309Z,21.76
2018-05-16T16:55:28.308Z,21.83
2018-05-16T16:56:28.380Z,21.77
2018-05-16T16:58:21.383Z,21.88
2018-05-16T16:59:21.444Z,21.83
2018-05-16T17:01:14.445Z,21.77
2018-05-16T17:02:14.516Z,21.70
2018-05-16T17:04:07.512Z,21.79
2018-05-16T17:05:07.574Z,21.75
2018-05-16T17:07:00.596Z,21.67
2018-05-16T17:08:00.637Z,21.67
2018-05-16T17:09:53.643Z,21.60
2018-05-16T17:10:53.708Z,21.60
2018-05-16T17:12:46.731Z,21.57
2018-05-16T17:13:46.780Z,21.51
2018-05-16T17:15:39.784Z,21.51
2018-05-16T17:16:39.849Z,21.50
2018-05-16T17:18:32.854Z,21.50
2018-05-16T17:19:32.916Z,21.51
2018-05-16T17:21:25.915Z,21.43
2018-05-16T17:22:25.978Z,21.48
2018-05-16T17:24:18.985Z,21.51
2018-05-16T17:25:19.050Z,21.39
2018-05-16T17:27:12.058Z,21.48
2018-05-16T17:28:12.122Z,21.50
2018-05-16T17:30:05.149Z,21.51
2018-05-16T17:31:05.504Z,21.43
2018-05-16T17:32:58.226Z,21.02
2018-05-16T17:33:58.273Z,20.99
2018-05-16T17:35:51.292Z,20.85
2018-05-16T17:36:51.340Z,20.74
2018-05-16T17:38:44.347Z,20.55
2018-05-16T17:39:44.404Z,20.48
2018-05-16T17:41:37.408Z,20.29
2018-05-16T17:42:37.471Z,20.07
2018-05-16T17:44:30.476Z,20.14
2018-05-16T17:45:30.539Z,20.04
2018-05-16T17:47:23.536Z,19.91
2018-05-16T17:48:23.602Z,19.91
2018-05-16T17:50:16.604Z,19.79
2018-05-16T17:51:16.664Z,19.63
2018-05-16T17:53:09.678Z,19.73
2018-05-16T17:54:09.746Z,19.67
2018-05-16T17:56:02.758Z,19.56
2018-05-16T17:57:02.818Z,19.54
2018-05-16T17:58:55.827Z,19.47
2018-05-16T17:59:55.891Z,19.41
2018-05-16T18:01:48.891Z,19.34
2018-05-16T18:02:48.956Z,19.21
2018-05-16T18:04:41.960Z,19.16
2018-05-16T18:05:42.021Z,19.12
2018-05-16T18:07:35.019Z,19.08
2018-05-16T18:08:35.079Z,19.04
2018-05-16T18:10:28.107Z,18.95
2018-05-16T18:11:28.147Z,18.84
2018-05-16T18:13:21.145Z,18.86
2018-05-16T18:14:21.209Z,18.83
2018-05-16T18:16:14.211Z,18.68
2018-05-16T18:17:14.318Z,18.58
2018-05-16T18:19:07.271Z,18.68
2018-05-16T18:20:07.332Z,18.62
2018-05-16T18:22:00.322Z,18.59
2018-05-16T18:23:00.388Z,18.47
2018-05-16T18:24:53.388Z,18.44
2018-05-16T18:25:53.455Z,18.38
2018-05-16T18:27:46.439Z,18.25
2018-05-16T18:28:46.504Z,18.28
2018-05-16T18:30:39.508Z,18.04
2018-05-16T18:31:39.566Z,18.10
2018-05-16T18:33:32.564Z,18.01
2018-05-16T18:34:32.623Z,18.00